createdAt,value
2018-12-24T00:00:34.499Z,92.33
2018-12-24T00:03:01.987Z,93.04
2018-12-24T00:05:29.309Z,92.27
2018-12-24T00:07:57.686Z,92.31
2018-12-24T00:10:24.810Z,92.03
2018-12-24T00:12:52.495Z,92.75
2018-12-24T00:15:19.861Z,92.49
2018-12-24T00:17:47.924Z,92.48
2018-12-24T00:20:15.586Z,92.27
2018-12-24T00:22:43.243Z,91.00
2018-12-24T00:25:10.255Z,89.80
2018-12-24T00:27:37.290Z,89.74
2018-12-24T00:30:06.740Z,89.69
2018-12-24T00:32:34.414Z,89.40
2018-12-24T00:35:02.081Z,88.71
2018-12-24T00:37:30.142Z,88.48
2018-12-24T00:39:57.497Z,87.64
2018-12-24T00:42:25.150Z,88.42
2018-12-24T00:44:52.170Z,89.29
2018-12-24T00:47:19.652Z,89.74
2018-12-24T00:49:48.185Z,89.18
2018-12-24T00:52:15.490Z,88.89
2018-12-24T00:54:42.872Z,88.68
2018-12-24T00:57:13.430Z,88.42
2018-12-24T00:59:42.024Z,86.42
2018-12-24T01:02:10.027Z,87.17
2018-12-24T01:04:37.894Z,88.30
2018-12-24T01:07:05.145Z,87.23
2018-12-24T01:09:32.504Z,86.42
2018-12-24T01:12:00.268Z,85.81
2018-12-24T01:14:28.950Z,86.23
2018-12-24T01:16:56.569Z,85.96
2018-12-24T01:19:23.965Z,85.74
2018-12-24T01:21:50.968Z,85.61
2018-12-24T01:24:18.574Z,84.62
2018-12-24T01:26:45.594Z,85.19
2018-12-24T01:29:12.875Z,84.83
2018-12-24T01:31:40.226Z,86.31
2018-12-24T01:34:07.622Z,86.09
2018-12-24T01:36:34.936Z,87.05
2018-12-24T01:39:04.642Z,86.40
2018-12-24T01:41:33.330Z,85.96
2018-12-24T01:44:00.709Z,85.33
2018-12-24T01:46:28.051Z,84.44
2018-12-24T01:48:55.071Z,83.50
2018-12-24T01:51:22.447Z,84.81
2018-12-24T01:53:50.106Z,84.80
2018-12-24T01:56:17.763Z,84.85
2018-12-24T01:58:45.424Z,84.21
2018-12-24T02:01:12.457Z,83.63
2018-12-24T02:03:39.707Z,83.33
2018-12-24T02:06:06.975Z,83.73
2018-12-24T02:08:34.337Z,83.40
2018-12-24T02:11:01.686Z,83.56
2018-12-24T02:13:28.694Z,81.30
2018-12-24T02:15:55.983Z,80.34
2018-12-24T02:18:23.465Z,78.55
2018-12-24T02:20:51.116Z,79.21
2018-12-24T02:23:18.869Z,76.73
2018-12-24T02:25:46.250Z,76.96
2018-12-24T02:28:13.886Z,78.45
2018-12-24T02:30:40.895Z,77.71
2018-12-24T02:33:08.183Z,76.60
2018-12-24T02:35:35.967Z,77.56
2018-12-24T02:38:03.958Z,76.33
2018-12-24T02:40:31.372Z,76.43
2018-12-24T02:42:58.738Z,76.14
2018-12-24T02:45:26.389Z,75.46
2018-12-24T02:47:53.746Z,76.13
2018-12-24T02:50:21.104Z,75.64
2018-12-24T02:52:48.452Z,75.53
2018-12-24T02:55:16.214Z,75.87
2018-12-24T02:57:43.500Z,76.64
2018-12-24T03:00:10.922Z,77.04
2018-12-24T03:02:39.008Z,77.25
2018-12-24T03:05:06.003Z,77.92
2018-12-24T03:07:33.703Z,78.31
2018-12-24T03:10:01.477Z,77.88
2018-12-24T03:12:28.833Z,78.32
2018-12-24T03:14:56.174Z,78.47
2018-12-24T03:17:23.531Z,78.64
2018-12-24T03:19:51.491Z,78.99
2018-12-24T03:22:18.855Z,78.84
2018-12-24T03:24:46.822Z,78.97
2018-12-24T03:27:15.718Z,78.15
2018-12-24T03:29:43.379Z,78.60
2018-12-24T03:32:10.445Z,79.06
2018-12-24T03:34:38.086Z,78.84
2018-12-24T03:37:05.645Z,78.68
2018-12-24T03:39:35.146Z,78.14
2018-12-24T03:42:05.847Z,78.32
2018-12-24T03:44:33.754Z,77.87
2018-12-24T03:47:01.109Z,77.08
2018-12-24T03:49:28.977Z,77.62
2018-12-24T03:51:56.635Z,77.68
2018-12-24T03:54:24.300Z,77.64
2018-12-24T03:56:53.086Z,77.02
2018-12-24T03:59:20.747Z,76.74
2018-12-24T04:01:48.402Z,77.14
2018-12-24T04:04:15.759Z,77.17
2018-12-24T04:06:43.141Z,76.72
2018-12-24T04:09:15.211Z,76.75
2018-12-24T04:11:42.536Z,76.49
2018-12-24T04:14:09.925Z,77.07
2018-12-24T04:16:37.550Z,76.77
2018-12-24T04:19:05.462Z,77.20
2018-12-24T04:21:33.597Z,77.51
2018-12-24T04:24:01.651Z,77.17
2018-12-24T04:26:29.831Z,76.80
2018-12-24T04:28:57.799Z,77.32
2018-12-24T04:31:25.181Z,77.11
2018-12-24T04:33:52.606Z,78.18
2018-12-24T04:36:19.618Z,78.19
2018-12-24T04:38:47.600Z,79.59
2018-12-24T04:41:15.804Z,80.60
2018-12-24T04:43:43.151Z,83.12
2018-12-24T04:46:10.192Z,84.15
2018-12-24T04:48:37.967Z,83.66
2018-12-24T04:51:04.978Z,84.63
2018-12-24T04:53:32.879Z,84.32
2018-12-24T04:56:00.855Z,85.63
2018-12-24T04:58:29.334Z,85.27
2018-12-24T05:00:56.994Z,86.87
2018-12-24T05:03:24.350Z,86.10
2018-12-24T05:05:52.005Z,87.00
2018-12-24T05:08:19.806Z,86.81
2018-12-24T05:10:47.544Z,85.46
2018-12-24T05:13:15.934Z,84.88
2018-12-24T05:15:44.146Z,86.35
2018-12-24T05:18:11.755Z,86.65
2018-12-24T05:20:39.481Z,86.18
2018-12-24T05:23:07.267Z,86.48
2018-12-24T05:25:34.661Z,87.16
2018-12-24T05:28:02.295Z,86.52
2018-12-24T05:30:30.267Z,86.82
2018-12-24T05:32:57.618Z,86.36
2018-12-24T05:35:25.037Z,87.65
2018-12-24T05:37:52.735Z,87.64
2018-12-24T05:40:20.399Z,87.41
2018-12-24T05:42:49.392Z,87.45
2018-12-24T05:45:17.358Z,87.17
2018-12-24T05:47:45.299Z,87.41
2018-12-24T05:50:12.307Z,87.11
2018-12-24T05:52:40.503Z,86.73
2018-12-24T05:55:08.519Z,86.38
2018-12-24T05:57:36.633Z,86.95
2018-12-24T06:00:04.862Z,86.26
2018-12-24T06:02:32.802Z,86.67
2018-12-24T06:05:00.162Z,86.25
2018-12-24T06:07:30.203Z,85.56
2018-12-24T06:09:57.866Z,85.58
2018-12-24T06:12:25.850Z,86.21
2018-12-24T06:14:53.498Z,87.04
2018-12-24T06:17:20.874Z,87.74
2018-12-24T06:19:48.819Z,89.10
2018-12-24T06:22:16.471Z,89.27
2018-12-24T06:24:44.554Z,88.99
2018-12-24T06:27:12.521Z,89.91
2018-12-24T06:29:40.186Z,88.90
2018-12-24T06:32:07.187Z,89.73
2018-12-24T06:34:34.791Z,90.07
2018-12-24T06:37:02.454Z,89.32
2018-12-24T06:39:30.337Z,90.05
2018-12-24T06:41:58.232Z,90.73
2018-12-24T06:44:25.847Z,91.12
2018-12-24T06:46:53.203Z,91.32
2018-12-24T06:49:20.871Z,91.15
2018-12-24T06:51:49.750Z,91.17
2018-12-24T06:54:17.723Z,91.40
2018-12-24T06:56:45.930Z,90.35
2018-12-24T06:59:13.555Z,91.58
2018-12-24T07:01:40.933Z,90.20
2018-12-24T07:04:08.570Z,90.75
2018-12-24T07:06:35.574Z,91.26
2018-12-24T07:09:04.408Z,90.87
2018-12-24T07:11:32.401Z,91.34
2018-12-24T07:14:00.350Z,90.56
2018-12-24T07:16:27.710Z,89.88
2018-12-24T07:18:55.777Z,90.99
2018-12-24T07:21:26.712Z,91.42
2018-12-24T07:23:53.998Z,91.35
2018-12-24T07:26:21.934Z,91.24
2018-12-24T07:28:58.753Z,89.57
2018-12-24T07:31:20.439Z,90.55
2018-12-24T07:33:48.094Z,88.52
2018-12-24T07:36:16.979Z,88.93
2018-12-24T07:38:44.947Z,89.02
2018-12-24T07:41:11.958Z,89.25
2018-12-24T07:43:39.662Z,88.95
2018-12-24T07:46:07.320Z,88.71
2018-12-24T07:48:35.258Z,89.15
2018-12-24T07:51:02.951Z,88.69
2018-12-24T07:53:31.635Z,88.77
2018-12-24T07:55:58.990Z,87.75
2018-12-24T07:58:26.652Z,87.81
2018-12-24T08:00:54.311Z,86.72
2018-12-24T08:03:23.310Z,85.54
2018-12-24T08:05:50.677Z,85.16
2018-12-24T08:08:18.043Z,84.50
2018-12-24T08:10:45.678Z,84.53
2018-12-24T08:13:12.706Z,84.32
2018-12-24T08:15:40.693Z,85.73
2018-12-24T08:18:08.969Z,84.99
2018-12-24T08:20:36.310Z,84.64
2018-12-24T08:23:03.981Z,85.15
2018-12-24T08:25:31.949Z,85.39
2018-12-24T08:27:59.319Z,84.72
2018-12-24T08:30:26.342Z,83.97
2018-12-24T08:32:53.854Z,84.27
2018-12-24T08:35:22.686Z,84.17
2018-12-24T08:37:50.565Z,83.68
2018-12-24T08:40:17.927Z,84.14
2018-12-24T08:42:46.711Z,83.88
2018-12-24T08:45:14.361Z,83.20
2018-12-24T08:47:41.725Z,83.27
2018-12-24T08:50:09.386Z,83.50
2018-12-24T08:52:37.050Z,83.16
2018-12-24T08:55:04.710Z,83.32
2018-12-24T08:57:32.066Z,83.14
2018-12-24T08:59:59.426Z,83.15
2018-12-24T09:02:27.094Z,82.74
2018-12-24T09:04:55.051Z,82.97
2018-12-24T09:07:22.710Z,82.24
2018-12-24T09:09:50.166Z,82.51
2018-12-24T09:12:17.500Z,82.42
2018-12-24T09:14:50.185Z,82.35
2018-12-24T09:17:14.691Z,83.40
2018-12-24T09:19:42.658Z,83.41
2018-12-24T09:22:10.010Z,84.11
2018-12-24T09:24:37.682Z,82.49
2018-12-24T09:27:05.018Z,81.70
2018-12-24T09:29:32.791Z,81.32
2018-12-24T09:32:00.455Z,80.50
2018-12-24T09:34:27.806Z,79.78
2018-12-24T09:36:55.471Z,79.32
2018-12-24T09:39:23.279Z,79.37
2018-12-24T09:41:50.897Z,79.97
2018-12-24T09:44:18.822Z,79.27
2018-12-24T09:46:46.121Z,79.96
2018-12-24T09:49:13.477Z,80.52
2018-12-24T09:51:40.498Z,79.24
2018-12-24T09:54:07.879Z,78.40
2018-12-24T09:56:35.637Z,77.03
2018-12-24T09:59:02.991Z,78.68
2018-12-24T10:01:30.651Z,79.23
2018-12-24T10:04:03.020Z,78.18
2018-12-24T10:06:34.537Z,79.15
2018-12-24T10:09:07.110Z,78.70
2018-12-24T10:11:34.407Z,77.56
2018-12-24T10:14:01.426Z,77.67
2018-12-24T10:16:29.290Z,77.52
2018-12-24T10:18:56.570Z,76.68
2018-12-24T10:21:23.621Z,76.88
2018-12-24T10:23:50.982Z,75.99
2018-12-24T10:26:18.012Z,76.29
2018-12-24T10:28:45.074Z,76.77
2018-12-24T10:31:12.830Z,77.61
2018-12-24T10:33:40.800Z,77.04
2018-12-24T10:36:08.155Z,76.84
2018-12-24T10:38:35.563Z,77.72
2018-12-24T10:41:08.087Z,78.00
2018-12-24T10:43:35.470Z,77.45
2018-12-24T10:46:02.815Z,77.07
2018-12-24T10:48:30.152Z,77.72
2018-12-24T10:50:57.182Z,77.30
2018-12-24T10:53:25.471Z,76.87
2018-12-24T10:55:52.836Z,77.17
2018-12-24T10:58:20.822Z,77.62
2018-12-24T11:00:48.150Z,77.17
2018-12-24T11:03:16.121Z,75.86
2018-12-24T11:05:45.111Z,75.91
2018-12-24T11:08:12.134Z,75.02
2018-12-24T11:10:40.127Z,75.89
2018-12-24T11:13:08.215Z,74.95
2018-12-24T11:15:35.838Z,75.50
2018-12-24T11:18:03.626Z,75.28
2018-12-24T11:20:31.285Z,74.24
2018-12-24T11:22:59.054Z,74.07
2018-12-24T11:25:26.438Z,73.89
2018-12-24T11:27:53.759Z,72.11
2018-12-24T11:30:22.040Z,72.33
2018-12-24T11:32:49.694Z,73.64
2018-12-24T11:35:17.662Z,72.89
2018-12-24T11:37:45.978Z,72.53
2018-12-24T11:40:13.538Z,72.13
2018-12-24T11:42:41.162Z,71.92
2018-12-24T11:45:10.155Z,71.77
2018-12-24T11:47:37.509Z,72.95
2018-12-24T11:50:05.278Z,74.12
2018-12-24T11:52:32.650Z,73.73
2018-12-24T11:54:59.981Z,73.64
2018-12-24T11:57:27.950Z,73.50
2018-12-24T11:59:54.968Z,74.11
2018-12-24T12:02:22.287Z,74.13
2018-12-24T12:04:50.219Z,75.00
2018-12-24T12:07:18.190Z,75.30
2018-12-24T12:09:46.190Z,75.87
2018-12-24T12:12:13.547Z,76.81
2018-12-24T12:14:40.867Z,76.12
2018-12-24T12:17:08.527Z,76.25
2018-12-24T12:19:35.904Z,76.52
2018-12-24T12:22:03.338Z,76.62
2018-12-24T12:24:30.718Z,77.22
2018-12-24T12:26:58.045Z,77.02
2018-12-24T12:29:25.090Z,76.84
2018-12-24T12:31:52.474Z,77.91
2018-12-24T12:34:20.111Z,77.70
2018-12-24T12:36:47.570Z,77.30
2018-12-24T12:39:15.234Z,77.62
2018-12-24T12:41:42.581Z,77.69
2018-12-24T12:44:10.335Z,77.71
2018-12-24T12:46:38.008Z,78.12
2018-12-24T12:49:05.372Z,78.76
2018-12-24T12:51:33.534Z,78.77
2018-12-24T12:54:00.567Z,78.82
2018-12-24T12:56:27.938Z,78.59
2018-12-24T12:58:55.602Z,79.11
2018-12-24T13:01:23.263Z,78.62
2018-12-24T13:03:50.666Z,79.18
2018-12-24T13:06:17.694Z,78.91
2018-12-24T13:08:45.014Z,78.77
2018-12-24T13:11:12.395Z,78.61
2018-12-24T13:13:39.769Z,79.18
2018-12-24T13:16:06.791Z,79.37
2018-12-24T13:18:33.865Z,80.14
2018-12-24T13:21:01.484Z,79.77
2018-12-24T13:23:29.251Z,80.09
2018-12-24T13:25:56.603Z,79.86
2018-12-24T13:28:24.261Z,80.08
2018-12-24T13:30:51.940Z,80.17
2018-12-24T13:33:19.900Z,80.39
2018-12-24T13:35:46.921Z,80.17
2018-12-24T13:38:14.909Z,80.01
2018-12-24T13:40:42.570Z,81.01
2018-12-24T13:43:10.335Z,81.04
2018-12-24T13:45:38.302Z,81.38
2018-12-24T13:48:06.782Z,81.57
2018-12-24T13:50:34.546Z,81.57
2018-12-24T13:53:02.210Z,81.59
2018-12-24T13:55:29.561Z,81.82
2018-12-24T13:57:57.315Z,80.71
2018-12-24T14:00:24.781Z,81.63
2018-12-24T14:02:52.170Z,81.68
2018-12-24T14:05:19.621Z,82.03
2018-12-24T14:07:46.951Z,82.85
2018-12-24T14:10:14.310Z,82.33
2018-12-24T14:12:41.706Z,83.00
2018-12-24T14:15:09.325Z,83.23
2018-12-24T14:17:37.391Z,83.55
2018-12-24T14:20:05.567Z,83.86
2018-12-24T14:22:33.485Z,83.77
2018-12-24T14:25:00.891Z,84.09
2018-12-24T14:27:28.650Z,84.32
2018-12-24T14:29:56.012Z,84.97
2018-12-24T14:32:23.671Z,84.54
2018-12-24T14:34:51.433Z,85.18
2018-12-24T14:37:19.198Z,85.52
2018-12-24T14:39:46.789Z,86.01
2018-12-24T14:42:14.110Z,85.75
2018-12-24T14:44:42.285Z,85.70
2018-12-24T14:47:11.062Z,85.46
2018-12-24T14:49:38.791Z,85.50
2018-12-24T14:52:06.806Z,86.36
2018-12-24T14:54:34.775Z,86.24
2018-12-24T14:57:02.537Z,86.48
2018-12-24T14:59:29.898Z,86.53
2018-12-24T15:01:57.556Z,86.99
2018-12-24T15:04:25.219Z,86.88
2018-12-24T15:06:52.971Z,86.80
2018-12-24T15:09:20.334Z,86.31
2018-12-24T15:11:47.727Z,85.84
2018-12-24T15:14:15.043Z,85.47
2018-12-24T15:16:42.499Z,85.29
2018-12-24T15:19:09.860Z,84.78
2018-12-24T15:21:36.875Z,84.08
2018-12-24T15:24:04.260Z,83.55
2018-12-24T15:26:32.532Z,82.49
2018-12-24T15:29:01.419Z,81.88
2018-12-24T15:31:29.189Z,81.03
2018-12-24T15:33:56.538Z,80.68
2018-12-24T15:36:23.901Z,80.80
2018-12-24T15:38:51.554Z,80.39
2018-12-24T15:41:19.522Z,80.34
2018-12-24T15:43:58.538Z,80.06
2018-12-24T15:46:26.216Z,79.68
2018-12-24T15:48:53.259Z,79.84
2018-12-24T15:51:20.928Z,79.77
2018-12-24T15:53:48.558Z,79.93
2018-12-24T15:56:16.441Z,79.58
2018-12-24T15:58:44.727Z,79.39
2018-12-24T16:01:12.320Z,79.66
2018-12-24T16:03:40.790Z,79.90
2018-12-24T16:06:08.537Z,79.66
2018-12-24T16:08:35.930Z,79.61
2018-12-24T16:11:03.550Z,80.31
2018-12-24T16:13:30.585Z,80.29
2018-12-24T16:15:58.362Z,80.55
2018-12-24T16:18:26.018Z,80.57
2018-12-24T16:20:53.789Z,81.12
2018-12-24T16:23:21.502Z,81.53
2018-12-24T16:25:49.382Z,81.98
2018-12-24T16:28:17.178Z,81.91
2018-12-24T16:30:45.151Z,82.23
2018-12-24T16:33:13.123Z,82.49
2018-12-24T16:35:40.766Z,82.82
2018-12-24T16:38:08.458Z,83.21
2018-12-24T16:40:35.478Z,83.21
2018-12-24T16:43:03.658Z,82.98
2018-12-24T16:45:31.050Z,83.14
2018-12-24T16:47:58.676Z,83.34
2018-12-24T16:50:26.031Z,83.20
2018-12-24T16:52:53.999Z,83.44
2018-12-24T16:55:22.069Z,83.49
2018-12-24T16:57:49.993Z,83.67
2018-12-24T17:00:17.802Z,83.71
2018-12-24T17:02:46.764Z,83.37
2018-12-24T17:05:14.666Z,84.00
2018-12-24T17:07:42.844Z,84.19
2018-12-24T17:10:11.417Z,84.02
2018-12-24T17:12:39.491Z,83.79
2018-12-24T17:15:06.846Z,83.68
2018-12-24T17:17:34.699Z,84.15
2018-12-24T17:20:02.346Z,84.05
2018-12-24T17:22:30.139Z,83.97
2018-12-24T17:24:57.801Z,84.42
2018-12-24T17:27:25.451Z,84.15
2018-12-24T17:29:52.814Z,84.17
2018-12-24T17:32:20.574Z,84.90
2018-12-24T17:34:48.258Z,84.54
2018-12-24T17:37:16.217Z,84.39
2018-12-24T17:39:43.583Z,84.75
2018-12-24T17:42:11.837Z,84.67
2018-12-24T17:44:39.195Z,85.03
2018-12-24T17:47:06.239Z,85.06
2018-12-24T17:49:34.929Z,84.69
2018-12-24T17:52:02.598Z,84.78
2018-12-24T17:54:29.634Z,84.87
2018-12-24T17:56:57.009Z,85.62
2018-12-24T17:59:24.391Z,85.13
2018-12-24T18:01:51.999Z,85.39
2018-12-24T18:04:19.979Z,86.08
2018-12-24T18:06:51.737Z,85.85
2018-12-24T18:09:19.089Z,85.91
2018-12-24T18:11:46.750Z,86.16
2018-12-24T18:14:14.679Z,86.51
2018-12-24T18:16:42.074Z,86.49
2018-12-24T18:19:09.734Z,86.95
2018-12-24T18:21:37.809Z,86.82
2018-12-24T18:24:05.160Z,86.93
2018-12-24T18:26:32.925Z,86.88
2018-12-24T18:29:00.285Z,86.83
2018-12-24T18:31:28.249Z,86.70
2018-12-24T18:33:55.906Z,86.75
2018-12-24T18:36:23.671Z,86.22
2018-12-24T18:38:50.711Z,86.14
2018-12-24T18:41:18.787Z,86.58
2018-12-24T18:43:46.554Z,86.46
2018-12-24T18:46:13.906Z,86.02
2018-12-24T18:48:41.261Z,86.21
2018-12-24T18:51:08.664Z,86.43
2018-12-24T18:53:36.275Z,86.38
2018-12-24T18:56:03.316Z,85.67
2018-12-24T18:58:31.297Z,86.29
2018-12-24T19:00:59.263Z,86.03
2018-12-24T19:03:26.783Z,86.21
2018-12-24T19:05:54.485Z,85.32
2018-12-24T19:08:22.553Z,84.85
2018-12-24T19:10:49.602Z,84.34
2018-12-24T19:13:17.467Z,82.86
2018-12-24T19:15:45.408Z,83.54
2018-12-24T19:18:13.202Z,83.00
2018-12-24T19:20:41.276Z,82.98
2018-12-24T19:23:08.627Z,83.00
2018-12-24T19:25:36.285Z,82.60
2018-12-24T19:28:03.637Z,82.67
2018-12-24T19:30:30.998Z,82.38
2018-12-24T19:32:58.963Z,82.87
2018-12-24T19:35:26.931Z,82.92
2018-12-24T19:37:54.289Z,83.03
2018-12-24T19:40:21.317Z,82.58
2018-12-24T19:42:48.987Z,83.72
2018-12-24T19:45:16.660Z,82.73
2018-12-24T19:47:49.798Z,82.87
2018-12-24T19:50:13.923Z,82.89
2018-12-24T19:52:41.894Z,82.66
2018-12-24T19:55:09.751Z,83.01
2018-12-24T19:57:37.834Z,82.72
2018-12-24T20:00:05.685Z,82.70
2018-12-24T20:02:34.794Z,82.93
2018-12-24T20:05:01.834Z,82.60
2018-12-24T20:07:29.918Z,83.16
2018-12-24T20:09:57.609Z,82.84
2018-12-24T20:12:25.234Z,82.32
2018-12-24T20:14:52.590Z,82.77
2018-12-24T20:17:20.558Z,83.58
2018-12-24T20:19:48.838Z,83.26
2018-12-24T20:22:16.706Z,83.76
2018-12-24T20:24:44.367Z,84.44
2018-12-24T20:27:11.645Z,83.88
2018-12-24T20:29:39.015Z,84.00
2018-12-24T20:32:06.347Z,83.93
2018-12-24T20:34:34.603Z,85.14
2018-12-24T20:37:02.478Z,84.98
2018-12-24T20:39:29.847Z,85.44
2018-12-24T20:41:56.877Z,86.08
2018-12-24T20:44:23.917Z,85.85
2018-12-24T20:46:51.578Z,86.49
2018-12-24T20:49:19.443Z,87.10
2018-12-24T20:51:46.899Z,87.32
2018-12-24T20:54:14.574Z,87.38
2018-12-24T20:56:42.628Z,88.02
2018-12-24T20:59:10.708Z,87.93
2018-12-24T21:01:38.368Z,87.90
2018-12-24T21:04:05.724Z,88.03
2018-12-24T21:06:33.511Z,88.85
2018-12-24T21:09:04.007Z,88.79
2018-12-24T21:11:31.779Z,88.59
2018-12-24T21:13:59.438Z,88.78
2018-12-24T21:16:26.494Z,88.49
2018-12-24T21:18:53.521Z,88.71
2018-12-24T21:21:23.051Z,88.47
2018-12-24T21:23:50.726Z,89.13
2018-12-24T21:26:18.360Z,88.62
2018-12-24T21:28:46.128Z,88.80
2018-12-24T21:31:13.516Z,89.18
2018-12-24T21:33:40.952Z,88.90
2018-12-24T21:36:09.828Z,88.89
2018-12-24T21:38:37.793Z,88.68
2018-12-24T21:41:06.275Z,88.40
2018-12-24T21:43:33.643Z,88.51
2018-12-24T21:46:00.982Z,88.82
2018-12-24T21:48:28.782Z,88.58
2018-12-24T21:50:56.326Z,88.54
2018-12-24T21:53:23.350Z,88.79
2018-12-24T21:55:52.725Z,88.92
2018-12-24T21:58:21.051Z,89.27
2018-12-24T22:00:48.786Z,89.35
2018-12-24T22:03:16.483Z,88.93
2018-12-24T22:05:43.907Z,88.66
2018-12-24T22:08:10.967Z,88.60
2018-12-24T22:10:38.622Z,89.00
2018-12-24T22:13:06.662Z,88.34
2018-12-24T22:15:34.275Z,89.10
2018-12-24T22:18:03.253Z,90.22
2018-12-24T22:20:30.604Z,89.73
2018-12-24T22:22:57.639Z,89.81
2018-12-24T22:25:25.417Z,90.05
2018-12-24T22:27:53.094Z,89.61
2018-12-24T22:30:20.532Z,89.63
2018-12-24T22:32:48.198Z,90.12
2018-12-24T22:35:15.565Z,89.87
2018-12-24T22:37:43.358Z,89.16
2018-12-24T22:40:10.418Z,89.07
2018-12-24T22:42:38.634Z,88.97
2018-12-24T22:45:06.189Z,88.99
2018-12-24T22:47:33.854Z,88.50
2018-12-24T22:50:01.835Z,88.62
2018-12-24T22:52:29.620Z,88.54
2018-12-24T22:54:57.747Z,89.11
2018-12-24T22:57:25.134Z,88.43
2018-12-24T22:59:52.984Z,88.09
2018-12-24T23:02:20.334Z,88.38
2018-12-24T23:04:47.713Z,87.99
2018-12-24T23:07:15.758Z,87.36
2018-12-24T23:09:43.426Z,87.31
2018-12-24T23:12:11.188Z,87.54
2018-12-24T23:14:38.846Z,87.48
2018-12-24T23:17:06.514Z,87.79
2018-12-24T23:19:33.879Z,87.50
2018-12-24T23:22:01.838Z,87.15
2018-12-24T23:24:29.186Z,87.29
2018-12-24T23:26:56.858Z,87.40
2018-12-24T23:29:25.966Z,87.37
2018-12-24T23:31:53.606Z,87.27
2018-12-24T23:34:20.630Z,87.31
2018-12-24T23:36:48.618Z,87.46
2018-12-24T23:39:16.272Z,88.33
2018-12-24T23:41:45.482Z,88.18
2018-12-24T23:44:12.543Z,87.65
2018-12-24T23:46:40.190Z,87.63
2018-12-24T23:49:08.159Z,87.75
2018-12-24T23:51:35.538Z,87.78
2018-12-24T23:54:02.883Z,88.03
2018-12-24T23:56:29.908Z,88.06
2018-12-24T23:58:57.577Z,87.60
